Time;durP1;ratioP1;P1;durP2;ratioP2;P2;SDS_P1;SDS_P2;PMS_P1;PMS_P2;Temp;Humidity;BMP_temperature;BMP_pressure;BME280_temperature;BME280_humidity;BME280_pressure;Samples;Min_cycle;Max_cycle;Signal;HPM_P1;HPM_P2
2021/01/05 00:02:20;;;;;;;12.17;6.20;;;6.30;74.40;;;;;;5009582;28;20034;-70
2021/01/05 00:04:45;;;;;;;10.77;6.03;;;6.20;74.70;;;;;;5012430;28;20116;-71
2021/01/05 00:07:12;;;;;;;9.63;5.37;;;6.20;74.80;;;;;;5011051;28;20030;-70
2021/01/05 00:09:37;;;;;;;10.60;6.17;;;6.20;74.80;;;;;;5013221;28;20038;-70
2021/01/05 00:12:09;;;;;;;11.20;6.03;;;6.20;74.80;;;;;;5013488;28;20087;-71
2021/01/05 00:14:38;;;;;;;10.27;6.17;;;6.20;74.70;;;;;;5011889;28;20038;-71
2021/01/05 00:17:05;;;;;;;9.87;5.57;;;6.20;74.70;;;;;;5012131;28;20034;-70
2021/01/05 00:19:31;;;;;;;10.80;6.60;;;6.20;74.80;;;;;;5007840;28;20086;-71
2021/01/05 00:21:56;;;;;;;9.60;5.83;;;6.20;74.80;;;;;;5005242;28;20169;-71
2021/01/05 00:24:22;;;;;;;10.50;6.53;;;6.20;74.70;;;;;;4997968;28;20169;-71
2021/01/05 00:26:48;;;;;;;11.57;6.47;;;6.10;74.50;;;;;;5009564;28;20034;-70
2021/01/05 00:29:14;;;;;;;11.33;6.77;;;6.10;74.80;;;;;;5011007;28;20148;-71
2021/01/05 00:31:40;;;;;;;11.53;5.87;;;6.10;74.70;;;;;;5011441;28;20037;-69
2021/01/05 00:34:06;;;;;;;13.43;7.60;;;6.10;74.50;;;;;;5006561;28;20065;-70
2021/01/05 00:36:32;;;;;;;11.50;6.87;;;6.10;74.50;;;;;;5009557;28;20053;-70
2021/01/05 00:38:58;;;;;;;11.17;6.20;;;6.00;74.70;;;;;;4996492;28;20034;-70
2021/01/05 00:41:24;;;;;;;12.67;6.53;;;6.10;74.70;;;;;;5011177;28;20037;-71
2021/01/05 00:43:50;;;;;;;12.73;6.77;;;6.10;74.50;;;;;;5011342;28;20041;-69
2021/01/05 00:46:18;;;;;;;11.77;6.23;;;6.20;74.50;;;;;;5013450;28;20105;-69
2021/01/05 00:48:44;;;;;;;12.80;7.10;;;6.20;74.40;;;;;;5010025;28;20033;-70
2021/01/05 00:51:12;;;;;;;13.00;6.50;;;6.10;74.20;;;;;;5012877;28;20481;-69
2021/01/05 00:53:38;;;;;;;11.97;7.53;;;6.10;74.40;;;;;;5009112;28;20399;-69
2021/01/05 00:56:04;;;;;;;11.20;6.80;;;6.10;74.40;;;;;;5008827;28;20052;-69
2021/01/05 00:58:30;;;;;;;11.50;6.53;;;6.20;74.50;;;;;;5010492;28;20022;-69
2021/01/05 01:00:56;;;;;;;12.30;6.63;;;6.20;74.40;;;;;;5011106;28;20045;-69
2021/01/05 01:03:22;;;;;;;13.13;7.23;;;6.30;74.40;;;;;;5025569;28;20034;-70
2021/01/05 01:05:49;;;;;;;11.83;7.10;;;6.20;74.20;;;;;;5011089;28;20029;-70
2021/01/05 01:08:17;;;;;;;11.93;6.43;;;6.30;74.50;;;;;;5008487;28;20022;-69
2021/01/05 01:10:42;;;;;;;13.07;7.47;;;6.20;74.60;;;;;;5010672;28;20112;-69
2021/01/05 01:13:09;;;;;;;12.53;6.80;;;6.20;74.70;;;;;;5009786;28;20034;-69
2021/01/05 01:15:35;;;;;;;12.63;6.67;;;6.10;74.90;;;;;;4994815;28;20045;-69
2021/01/05 01:18:02;;;;;;;12.30;7.13;;;6.20;74.90;;;;;;5009686;28;20088;-69
2021/01/05 01:20:27;;;;;;;13.10;8.00;;;6.10;74.90;;;;;;5025430;28;20497;-69
2021/01/05 01:22:53;;;;;;;13.23;6.97;;;6.10;75.00;;;;;;5011357;28;20121;-69
2021/01/05 01:25:21;;;;;;;11.43;6.83;;;6.10;74.90;;;;;;4996107;28;20161;-70
2021/01/05 01:27:47;;;;;;;12.57;7.17;;;6.10;75.00;;;;;;5010444;28;20097;-69
2021/01/05 01:30:13;;;;;;;12.13;7.00;;;6.10;74.90;;;;;;5011851;28;20149;-69
2021/01/05 01:32:39;;;;;;;13.10;6.87;;;6.10;74.90;;;;;;5013257;28;20030;-69
2021/01/05 01:35:06;;;;;;;12.27;6.70;;;6.10;74.80;;;;;;5007712;28;20369;-69
2021/01/05 01:37:31;;;;;;;12.83;7.07;;;6.10;74.80;;;;;;5010137;28;20041;-70
2021/01/05 01:39:57;;;;;;;11.63;7.10;;;6.10;74.80;;;;;;5009429;28;20116;-70
2021/01/05 01:42:23;;;;;;;16.20;7.00;;;7.10;75.30;;;;;;5005888;28;20038;-70
2021/01/05 01:44:50;;;;;;;12.83;7.50;;;6.20;74.80;;;;;;4995684;28;20465;-69
2021/01/05 01:47:27;;;;;;;12.33;7.90;;;6.20;74.60;;;;;;4995932;28;20487;-70
2021/01/05 01:49:56;;;;;;;12.27;6.23;;;6.20;74.60;;;;;;5009439;28;20022;-69
2021/01/05 01:52:55;;;;;;;13.30;7.20;;;6.30;74.50;;;;;;5008717;28;20088;-69
2021/01/05 01:55:38;;;;;;;12.73;7.03;;;6.30;74.40;;;;;;5011449;28;20034;-70
2021/01/05 01:58:22;;;;;;;11.40;6.87;;;6.30;74.40;;;;;;4999027;28;20113;-71
2021/01/05 02:01:12;;;;;;;12.73;7.10;;;6.30;74.30;;;;;;5010879;28;20113;-70
2021/01/05 02:04:05;;;;;;;11.03;6.90;;;6.20;74.50;;;;;;5006201;28;20056;-70
2021/01/05 02:06:46;;;;;;;12.70;7.63;;;6.20;74.60;;;;;;5005802;28;20104;-69
2021/01/05 02:09:37;;;;;;;11.47;6.90;;;6.20;74.60;;;;;;5008938;28;20040;-70
2021/01/05 02:12:25;;;;;;;11.90;7.20;;;6.20;74.60;;;;;;4998080;28;20034;-69
2021/01/05 02:14:59;;;;;;;11.50;5.93;;;6.20;74.70;;;;;;5004529;28;20049;-70
2021/01/05 02:17:42;;;;;;;;;;;6.20;75.30;;;;;;5011053;28;20030;-69
2021/01/05 02:20:14;;;;;;;12.00;7.07;;;6.30;74.70;;;;;;5004365;28;19913;-70
2021/01/05 02:22:54;;;;;;;12.90;7.27;;;6.30;74.70;;;;;;5004362;28;20038;-70
2021/01/05 02:25:58;;;;;;;11.47;6.47;;;6.20;74.80;;;;;;5006797;28;20108;-70
2021/01/05 02:28:32;;;;;;;13.70;7.97;;;6.20;74.90;;;;;;5009276;28;20084;-70
2021/01/05 02:31:08;;;;;;;11.37;6.20;;;6.30;74.90;;;;;;4998726;28;20069;-69
2021/01/05 02:33:50;;;;;;;13.07;7.67;;;6.30;74.90;;;;;;5008385;28;20037;-70
2021/01/05 02:36:36;;;;;;;13.57;7.33;;;6.30;74.90;;;;;;5009135;28;20046;-70
2021/01/05 02:39:31;;;;;;;13.30;7.43;;;6.30;74.80;;;;;;5008985;28;20048;-70
2021/01/05 02:42:24;;;;;;;12.07;7.23;;;6.30;74.70;;;;;;5009166;28;20121;-70
2021/01/05 02:45:17;;;;;;;11.23;6.20;;;6.40;74.70;;;;;;5004273;28;20026;-70
2021/01/05 02:48:07;;;;;;;13.40;7.43;;;6.40;74.40;;;;;;5006291;28;20037;-70
2021/01/05 02:50:54;;;;;;;12.17;7.27;;;6.40;74.40;;;;;;5001016;28;20456;-70
2021/01/05 02:53:20;;;;;;;13.70;7.27;;;6.40;74.40;;;;;;5008890;28;20041;-70
2021/01/05 02:56:29;;;;;;;14.90;8.17;;;6.40;74.40;;;;;;5010325;28;20038;-70
2021/01/05 02:59:34;;;;;;;13.77;7.40;;;6.40;74.20;;;;;;5012997;28;20089;-70
2021/01/05 03:02:27;;;;;;;14.97;7.77;;;6.40;74.20;;;;;;5011122;28;20057;-70
2021/01/05 03:04:52;;;;;;;12.87;7.47;;;6.30;74.20;;;;;;5008114;28;20069;-70
2021/01/05 03:07:23;;;;;;;14.00;8.90;;;6.30;74.20;;;;;;4996471;28;20092;-70
2021/01/05 03:10:07;;;;;;;14.30;8.23;;;6.30;74.20;;;;;;5012358;28;20029;-70
2021/01/05 03:12:54;;;;;;;14.93;7.73;;;6.30;74.20;;;;;;5007692;28;20114;-70
2021/01/05 03:15:31;;;;;;;12.50;6.03;;;6.40;74.20;;;;;;5011020;28;20022;-70
2021/01/05 03:18:13;;;;;;;13.90;8.17;;;6.40;74.10;;;;;;5012003;28;20030;-70
2021/01/05 03:20:46;;;;;;;14.17;8.00;;;6.40;74.00;;;;;;5006079;28;20042;-70
2021/01/05 03:23:13;;;;;;;14.30;8.23;;;6.40;74.00;;;;;;4994905;28;20026;-70
2021/01/05 03:25:42;;;;;;;12.70;7.43;;;6.30;74.10;;;;;;5010271;28;20120;-70
2021/01/05 03:28:11;;;;;;;14.60;7.87;;;6.40;74.20;;;;;;5012491;28;20068;-70
2021/01/05 03:30:41;;;;;;;16.20;9.40;;;6.30;74.00;;;;;;5008070;28;20041;-69
2021/01/05 03:33:07;;;;;;;15.67;8.37;;;6.30;74.10;;;;;;5010933;28;20034;-70
2021/01/05 03:35:33;;;;;;;14.10;8.03;;;6.30;74.10;;;;;;4995156;28;20351;-70
2021/01/05 03:37:59;;;;;;;13.57;7.43;;;6.30;74.20;;;;;;5009431;28;20041;-70
2021/01/05 03:40:26;;;;;;;16.00;8.73;;;6.30;74.20;;;;;;5004391;28;20391;-70
2021/01/05 03:42:52;;;;;;;13.30;7.73;;;6.30;74.30;;;;;;5009461;28;20460;-70
2021/01/05 03:45:25;;;;;;;14.63;7.90;;;6.30;74.50;;;;;;5008728;28;20041;-70
2021/01/05 03:47:51;;;;;;;14.13;8.15;;;6.30;74.50;;;;;;5014429;28;20123;-70
2021/01/05 03:50:17;;;;;;;16.73;10.13;;;6.40;74.40;;;;;;5009236;28;20030;-70
2021/01/05 03:52:43;;;;;;;16.30;9.27;;;6.40;74.20;;;;;;5013009;28;20034;-69
2021/01/05 03:55:10;;;;;;;14.13;8.57;;;6.30;74.30;;;;;;5012464;28;20065;-70
2021/01/05 03:57:36;;;;;;;13.97;8.20;;;6.30;74.50;;;;;;5009385;28;20038;-70
2021/01/05 04:00:05;;;;;;;16.80;9.03;;;6.30;74.60;;;;;;5012144;28;20059;-70
2021/01/05 04:02:30;;;;;;;15.23;8.27;;;6.30;74.50;;;;;;5012280;28;20026;-69
2021/01/05 04:04:56;;;;;;;16.03;9.53;;;6.40;74.60;;;;;;5010260;28;20034;-70
2021/01/05 04:07:22;;;;;;;17.53;9.47;;;6.40;74.50;;;;;;5013170;28;20112;-70
2021/01/05 04:09:47;;;;;;;14.77;7.77;;;6.40;74.50;;;;;;5000403;28;20042;-69
2021/01/05 04:12:13;;;;;;;17.03;9.20;;;6.40;74.50;;;;;;5012166;28;20034;-69
2021/01/05 04:14:38;;;;;;;14.70;7.90;;;6.30;74.60;;;;;;4993235;28;20030;-70
2021/01/05 04:17:04;;;;;;;14.40;8.33;;;6.30;74.70;;;;;;5012006;28;20045;-69
2021/01/05 04:19:29;;;;;;;15.90;9.10;;;6.30;74.70;;;;;;5009741;28;20038;-70
2021/01/05 04:21:55;;;;;;;17.43;9.30;;;6.30;74.70;;;;;;5011657;28;20152;-70
2021/01/05 04:24:21;;;;;;;14.07;7.83;;;6.30;75.00;;;;;;5011919;28;20034;-70
2021/01/05 04:26:46;;;;;;;18.03;9.97;;;6.20;75.10;;;;;;5013025;28;20034;-69
2021/01/05 04:29:13;;;;;;;16.40;11.07;;;6.20;75.40;;;;;;5008619;28;20072;-70
2021/01/05 04:31:40;;;;;;;17.43;9.17;;;6.20;75.60;;;;;;5006422;28;20045;-70
2021/01/05 04:34:06;;;;;;;16.63;9.40;;;6.20;75.60;;;;;;5006316;28;20049;-70
2021/01/05 04:36:33;;;;;;;16.83;9.50;;;6.20;75.60;;;;;;5009493;28;20077;-70
2021/01/05 04:38:58;;;;;;;16.03;8.33;;;6.20;75.70;;;;;;5011183;28;20125;-69
2021/01/05 04:41:26;;;;;;;18.80;10.77;;;6.20;75.70;;;;;;5010549;28;20172;-70
2021/01/05 04:44:03;;;;;;;19.73;10.77;;;6.20;75.70;;;;;;5009625;28;20030;-70
2021/01/05 04:46:38;;;;;;;18.87;11.03;;;6.20;75.70;;;;;;5010508;28;20022;-70
2021/01/05 04:49:22;;;;;;;20.97;10.60;;;6.30;75.80;;;;;;5008608;28;20112;-70
2021/01/05 04:52:01;;;;;;;20.50;11.03;;;6.30;75.80;;;;;;5011914;28;20084;-70
2021/01/05 04:55:04;;;;;;;16.47;9.63;;;6.30;75.60;;;;;;5011242;28;20077;-70
2021/01/05 04:57:34;;;;;;;14.90;9.03;;;6.30;75.60;;;;;;5000340;28;20045;-70
2021/01/05 05:00:15;;;;;;;17.93;10.37;;;6.30;75.50;;;;;;5009427;28;20133;-69
2021/01/05 05:02:56;;;;;;;16.30;8.97;;;6.30;75.40;;;;;;5000091;28;20030;-70
2021/01/05 05:05:24;;;;;;;15.90;8.50;;;6.20;75.20;;;;;;5009404;28;20214;-70
2021/01/05 05:08:08;;;;;;;14.10;7.40;;;6.20;75.30;;;;;;4995990;28;20035;-70
2021/01/05 05:10:43;;;;;;;16.40;9.57;;;6.20;75.40;;;;;;5012968;28;20055;-70
2021/01/05 05:13:18;;;;;;;14.27;7.47;;;6.20;75.50;;;;;;5010297;28;20105;-70
2021/01/05 05:15:51;;;;;;;16.53;9.53;;;6.20;75.60;;;;;;5011391;28;20062;-70
2021/01/05 05:18:31;;;;;;;16.42;8.90;;;6.20;75.60;;;;;;5005442;28;20022;-70
2021/01/05 05:21:11;;;;;;;15.90;7.80;;;6.20;75.50;;;;;;5003205;28;20045;-70
2021/01/05 05:24:16;;;;;;;16.03;8.30;;;6.20;75.50;;;;;;5011773;28;20102;-70
2021/01/05 05:26:44;;;;;;;;;;;6.20;76.20;;;;;;5007126;28;20072;-70
2021/01/05 05:29:46;;;;;;;17.70;9.77;;;6.30;75.40;;;;;;5004229;28;19913;-70
2021/01/05 05:32:34;;;;;;;15.67;9.50;;;6.30;75.50;;;;;;5005096;28;20042;-70
2021/01/05 05:35:00;;;;;;;16.03;8.87;;;6.30;75.60;;;;;;5005242;28;20056;-70
2021/01/05 05:37:47;;;;;;;16.30;8.83;;;6.30;75.70;;;;;;5009530;28;20031;-70
2021/01/05 05:40:27;;;;;;;18.10;9.03;;;6.30;75.80;;;;;;5008698;28;20038;-70
2021/01/05 05:43:18;;;;;;;16.63;8.70;;;6.30;75.80;;;;;;5011745;28;20069;-70
2021/01/05 05:45:47;;;;;;;14.73;8.43;;;6.30;75.60;;;;;;5009822;28;20030;-70
2021/01/05 05:48:37;;;;;;;16.90;8.73;;;6.40;75.60;;;;;;5009334;28;20038;-71
2021/01/05 05:51:21;;;;;;;15.73;9.13;;;6.40;75.50;;;;;;5010402;28;20112;-70
2021/01/05 05:54:00;;;;;;;15.30;9.02;;;6.40;75.40;;;;;;5006762;28;20408;-70
2021/01/05 05:57:03;;;;;;;14.27;7.90;;;6.40;75.50;;;;;;5007824;28;20053;-70
2021/01/05 06:00:10;;;;;;;16.37;8.33;;;6.40;75.50;;;;;;5003343;28;20444;-69
2021/01/05 06:02:36;;;;;;;16.07;9.47;;;6.40;75.40;;;;;;4983170;28;20046;-70
2021/01/05 06:05:27;;;;;;;15.00;8.63;;;6.40;75.40;;;;;;5001444;28;20037;-70
2021/01/05 06:07:53;;;;;;;21.00;9.40;;;6.40;75.40;;;;;;5003667;28;20034;-70
2021/01/05 06:10:19;;;;;;;16.13;8.23;;;6.50;75.40;;;;;;5009182;28;20038;-70
2021/01/05 06:12:44;;;;;;;17.47;9.37;;;6.50;75.30;;;;;;5006674;28;20480;-70
2021/01/05 06:15:10;;;;;;;14.50;8.43;;;6.50;75.10;;;;;;5009061;28;20114;-70
2021/01/05 06:17:36;;;;;;;14.83;8.07;;;6.50;75.10;;;;;;5010081;28;20076;-69
2021/01/05 06:20:02;;;;;;;15.37;8.13;;;6.40;75.10;;;;;;5005882;28;20038;-70
2021/01/05 06:22:28;;;;;;;17.63;9.27;;;6.40;75.10;;;;;;5009226;28;20030;-70
2021/01/05 06:24:53;;;;;;;15.93;8.63;;;6.40;75.00;;;;;;5009966;28;20030;-70
2021/01/05 06:27:19;;;;;;;16.80;8.57;;;6.40;75.00;;;;;;4988890;28;20111;-70
2021/01/05 06:29:45;;;;;;;15.70;9.37;;;6.30;75.10;;;;;;5007553;28;20034;-70
2021/01/05 06:32:10;;;;;;;16.87;9.10;;;6.30;75.40;;;;;;4982967;28;20045;-69
2021/01/05 06:34:36;;;;;;;16.50;9.60;;;6.40;75.30;;;;;;4989407;28;20059;-70
2021/01/05 06:37:01;;;;;;;15.03;8.57;;;6.40;75.30;;;;;;5008637;28;20034;-70
2021/01/05 06:39:27;;;;;;;16.50;9.80;;;6.40;75.30;;;;;;5008205;28;20537;-69
2021/01/05 06:41:53;;;;;;;16.17;8.50;;;6.40;75.10;;;;;;5011055;28;20038;-70
2021/01/05 06:44:18;;;;;;;19.13;10.60;;;6.40;75.20;;;;;;5006811;28;20065;-70
2021/01/05 06:46:49;;;;;;;21.23;10.47;;;6.50;75.20;;;;;;5010273;28;20068;-70
2021/01/05 06:49:15;;;;;;;17.37;10.20;;;6.40;75.20;;;;;;5006022;28;20030;-70
2021/01/05 06:51:41;;;;;;;17.87;10.53;;;6.40;75.40;;;;;;5008956;28;20502;-70
2021/01/05 06:54:07;;;;;;;20.47;11.57;;;6.40;75.50;;;;;;5009743;28;20044;-69
2021/01/05 06:56:33;;;;;;;19.10;10.57;;;6.30;75.50;;;;;;5006516;28;20050;-70
2021/01/05 06:58:58;;;;;;;17.30;9.87;;;6.30;75.60;;;;;;5007972;28;20076;-70
2021/01/05 07:01:24;;;;;;;17.97;10.60;;;6.30;75.70;;;;;;5007179;28;20744;-70
2021/01/05 07:03:49;;;;;;;17.97;9.43;;;6.40;75.70;;;;;;4998385;28;20033;-70
2021/01/05 07:06:15;;;;;;;18.63;10.50;;;6.40;75.60;;;;;;5005063;28;20022;-70
2021/01/05 07:08:40;;;;;;;18.73;10.07;;;6.50;75.40;;;;;;5013214;28;20444;-70
2021/01/05 07:11:06;;;;;;;20.30;11.07;;;6.50;75.20;;;;;;5013097;28;20121;-70
2021/01/05 07:13:32;;;;;;;19.07;11.40;;;6.50;75.10;;;;;;5006099;28;20050;-69
2021/01/05 07:15:57;;;;;;;20.43;10.30;;;6.50;75.10;;;;;;5006892;28;20057;-70
2021/01/05 07:18:23;;;;;;;18.17;10.43;;;6.50;75.20;;;;;;5005488;28;20468;-70
2021/01/05 07:20:48;;;;;;;20.33;11.00;;;6.50;75.20;;;;;;5004454;28;20037;-79
2021/01/05 07:23:14;;;;;;;20.33;10.67;;;6.50;75.10;;;;;;4986405;28;20623;-79
2021/01/05 07:25:40;;;;;;;18.40;9.93;;;6.60;75.10;;;;;;5009202;28;20087;-80
2021/01/05 07:28:05;;;;;;;19.70;11.43;;;6.50;75.10;;;;;;5003417;28;20117;-79
2021/01/05 07:30:31;;;;;;;20.43;10.53;;;6.50;75.10;;;;;;5004102;28;20100;-79
2021/01/05 07:32:56;;;;;;;21.17;10.30;;;6.50;75.20;;;;;;5006243;28;20033;-79
2021/01/05 07:35:22;;;;;;;21.97;10.37;;;6.60;75.20;;;;;;5004699;28;20180;-78
2021/01/05 07:37:48;;;;;;;21.30;11.90;;;6.60;75.00;;;;;;5011442;28;20038;-79
2021/01/05 07:40:15;;;;;;;20.20;11.93;;;6.70;74.80;;;;;;5007112;28;20568;-80
2021/01/05 07:42:41;;;;;;;20.37;10.73;;;6.60;74.80;;;;;;5007168;28;20183;-80
2021/01/05 07:45:14;;;;;;;18.87;10.20;;;6.60;75.00;;;;;;4995093;28;20110;-78
2021/01/05 07:47:40;;;;;;;20.52;10.70;;;6.70;75.00;;;;;;5002740;28;20107;-82
2021/01/05 07:50:08;;;;;;;18.03;9.90;;;6.70;75.00;;;;;;5000763;28;20045;-82
2021/01/05 07:52:39;;;;;;;20.50;10.40;;;6.70;74.80;;;;;;5001715;28;20444;-81
2021/01/05 07:55:08;;;;;;;18.47;10.60;;;6.80;74.80;;;;;;5001225;28;20049;-82
2021/01/05 07:57:34;;;;;;;19.47;10.33;;;6.70;74.70;;;;;;4996625;28;20021;-83
2021/01/05 08:00:00;;;;;;;23.67;12.60;;;6.70;74.70;;;;;;4995826;28;20042;-82
2021/01/05 08:02:25;;;;;;;20.50;11.23;;;6.70;74.80;;;;;;4993549;28;21334;-81
2021/01/05 08:04:52;;;;;;;19.27;10.23;;;6.70;74.90;;;;;;4991916;28;20049;-84
2021/01/05 08:07:17;;;;;;;19.07;10.70;;;6.70;74.90;;;;;;4977808;28;20076;-83
2021/01/05 08:09:43;;;;;;;21.87;12.07;;;6.70;74.60;;;;;;4993840;28;20035;-84
2021/01/05 08:12:19;;;;;;;20.50;12.63;;;6.70;74.60;;;;;;4989958;28;20045;-83
2021/01/05 08:14:46;;;;;;;21.60;12.23;;;6.70;74.60;;;;;;4996701;28;20096;-78
2021/01/05 08:17:13;;;;;;;19.53;11.03;;;6.60;74.60;;;;;;5002034;28;20109;-77
2021/01/05 08:19:42;;;;;;;18.87;10.07;;;6.70;74.60;;;;;;4993680;28;20039;-79
2021/01/05 08:22:08;;;;;;;20.53;11.10;;;6.80;74.40;;;;;;4989069;28;20073;-81
2021/01/05 08:24:34;;;;;;;18.10;9.33;;;6.80;74.30;;;;;;5006946;28;20053;-83
2021/01/05 08:26:59;;;;;;;20.23;11.70;;;6.80;74.20;;;;;;5012727;28;20034;-82
2021/01/05 08:29:25;;;;;;;18.40;10.63;;;6.80;74.10;;;;;;4972118;28;20065;-85
2021/01/05 08:31:51;;;;;;;18.60;11.03;;;6.80;74.00;;;;;;4981183;28;20048;-81
2021/01/05 08:34:16;;;;;;;18.83;11.47;;;6.80;73.80;;;;;;4974116;28;20030;-81
2021/01/05 08:36:42;;;;;;;19.57;10.93;;;6.80;73.80;;;;;;4993457;28;20040;-83
2021/01/05 08:39:11;;;;;;;20.20;11.35;;;6.80;73.60;;;;;;4974806;28;20038;-78
2021/01/05 08:41:37;;;;;;;17.23;10.23;;;6.70;73.80;;;;;;4984445;28;20041;-77
2021/01/05 08:44:03;;;;;;;17.53;9.90;;;6.80;73.80;;;;;;4993497;28;20049;-76
2021/01/05 08:46:29;;;;;;;20.60;11.70;;;6.80;73.70;;;;;;4990930;28;20066;-78
2021/01/05 08:48:55;;;;;;;19.30;9.50;;;6.80;73.60;;;;;;4978470;28;20110;-78
2021/01/05 08:51:22;;;;;;;21.60;11.53;;;6.80;73.60;;;;;;4975933;28;20048;-76
2021/01/05 08:53:49;;;;;;;19.23;10.90;;;7.00;73.50;;;;;;4993644;28;20156;-81
2021/01/05 08:56:26;;;;;;;18.03;9.47;;;7.00;73.30;;;;;;4998146;28;20160;-83
2021/01/05 08:58:52;;;;;;;17.23;9.93;;;7.10;73.00;;;;;;4995410;28;20022;-81
2021/01/05 09:01:18;;;;;;;15.00;8.97;;;7.10;72.90;;;;;;4983476;28;20034;-81
2021/01/05 09:03:44;;;;;;;18.73;10.30;;;7.10;72.80;;;;;;4995864;28;20033;-82
2021/01/05 09:06:11;;;;;;;16.63;9.73;;;7.10;72.80;;;;;;4987233;28;20034;-79
2021/01/05 09:08:38;;;;;;;15.70;9.10;;;7.10;72.80;;;;;;4992861;28;20164;-77
2021/01/05 09:11:15;;;;;;;16.83;9.50;;;7.10;72.50;;;;;;4995130;28;20201;-77
2021/01/05 09:13:41;;;;;;;18.13;9.60;;;7.00;72.50;;;;;;5001176;28;20563;-75
2021/01/05 09:16:07;;;;;;;16.00;10.00;;;7.00;72.80;;;;;;5005800;28;20033;-79
2021/01/05 09:18:32;;;;;;;15.57;9.07;;;7.00;72.90;;;;;;4985773;28;20080;-78
2021/01/05 09:20:58;;;;;;;15.53;8.53;;;7.00;72.80;;;;;;4982661;28;20376;-78
2021/01/05 09:23:24;;;;;;;18.10;10.03;;;7.10;72.70;;;;;;4988493;28;20040;-79
2021/01/05 09:25:51;;;;;;;18.57;11.73;;;7.10;72.60;;;;;;5001545;28;20026;-79
2021/01/05 09:28:18;;;;;;;17.43;10.77;;;7.10;72.60;;;;;;4995429;28;20022;-76
2021/01/05 09:30:46;;;;;;;16.20;9.77;;;7.00;72.50;;;;;;4973753;28;20094;-80
2021/01/05 09:33:11;;;;;;;17.40;10.70;;;7.10;72.60;;;;;;5001127;28;20153;-79
2021/01/05 09:35:37;;;;;;;14.90;8.77;;;7.10;72.50;;;;;;5004678;28;20077;-81
2021/01/05 09:38:08;;;;;;;15.33;9.90;;;7.10;72.40;;;;;;4988484;28;20037;-80
2021/01/05 09:40:38;;;;;;;16.57;10.03;;;7.20;72.30;;;;;;4996860;28;20037;-77
2021/01/05 09:43:12;;;;;;;17.43;10.13;;;7.20;72.30;;;;;;5003294;28;20602;-77
2021/01/05 09:45:41;;;;;;;16.33;8.37;;;7.20;72.00;;;;;;4998941;28;20446;-77
2021/01/05 09:48:07;;;;;;;14.87;8.77;;;7.10;71.80;;;;;;4999897;28;20035;-77
2021/01/05 09:50:34;;;;;;;14.23;9.00;;;7.10;71.90;;;;;;4998078;28;20050;-78
2021/01/05 09:53:01;;;;;;;14.57;8.20;;;7.00;71.80;;;;;;5002284;28;20034;-79
2021/01/05 09:55:26;;;;;;;14.70;8.83;;;7.00;71.80;;;;;;4994694;28;20038;-77
2021/01/05 09:57:53;;;;;;;21.37;8.33;;;7.00;71.70;;;;;;4975028;28;20080;-78
2021/01/05 10:00:20;;;;;;;12.47;7.47;;;6.90;71.60;;;;;;4985396;28;20034;-80
2021/01/05 10:02:46;;;;;;;13.17;7.63;;;6.90;71.70;;;;;;4995038;28;20045;-78
2021/01/05 10:05:12;;;;;;;13.33;8.50;;;6.90;71.80;;;;;;4996225;28;20030;-78
2021/01/05 10:07:38;;;;;;;13.17;7.87;;;6.90;71.60;;;;;;4996356;28;20049;-79
2021/01/05 10:10:05;;;;;;;14.40;8.27;;;6.90;71.50;;;;;;4970114;28;20039;-80
2021/01/05 10:12:31;;;;;;;12.87;7.50;;;6.80;71.40;;;;;;4994111;28;20164;-79
2021/01/05 10:14:56;;;;;;;13.63;6.77;;;6.80;71.50;;;;;;4976259;28;20176;-78
2021/01/05 10:17:22;;;;;;;13.10;7.30;;;6.90;71.40;;;;;;4978546;28;20045;-79
2021/01/05 10:19:48;;;;;;;13.80;8.10;;;6.90;71.30;;;;;;4976044;28;20034;-75
2021/01/05 10:22:13;;;;;;;12.40;7.00;;;6.90;71.20;;;;;;4974339;28;20487;-77
2021/01/05 10:24:39;;;;;;;11.80;7.27;;;6.90;71.20;;;;;;4993760;28;20072;-78
2021/01/05 10:27:05;;;;;;;13.30;8.03;;;7.00;71.40;;;;;;4980584;28;20057;-79
2021/01/05 10:29:30;;;;;;;12.40;7.43;;;6.90;71.10;;;;;;4996161;28;20099;-78
2021/01/05 10:31:56;;;;;;;12.07;6.30;;;6.90;71.30;;;;;;4974592;28;20046;-79
2021/01/05 10:34:24;;;;;;;13.10;7.70;;;6.90;71.40;;;;;;4992868;28;20035;-78
2021/01/05 10:36:51;;;;;;;12.63;7.60;;;6.80;71.20;;;;;;4992699;28;20125;-78
2021/01/05 10:39:17;;;;;;;11.93;7.53;;;6.90;71.50;;;;;;4997983;28;20030;-78
2021/01/05 10:41:44;;;;;;;13.27;8.70;;;6.90;71.50;;;;;;4998195;28;20046;-78
2021/01/05 10:44:12;;;;;;;13.33;7.47;;;6.90;71.50;;;;;;4976972;28;20041;-77
2021/01/05 10:46:37;;;;;;;12.80;8.18;;;6.90;71.60;;;;;;4995858;28;20060;-79
2021/01/05 10:49:03;;;;;;;15.57;8.27;;;6.90;71.50;;;;;;4997019;28;20061;-79
2021/01/05 10:51:29;;;;;;;14.20;8.27;;;6.90;71.60;;;;;;4986134;28;20539;-76
2021/01/05 10:53:55;;;;;;;14.03;8.17;;;6.90;71.70;;;;;;4982555;28;20136;-81
2021/01/05 10:56:21;;;;;;;12.83;8.17;;;6.90;71.60;;;;;;4998411;28;20042;-83
2021/01/05 10:58:47;;;;;;;15.27;8.50;;;7.00;71.40;;;;;;4997881;28;20133;-82
2021/01/05 11:01:13;;;;;;;14.25;7.82;;;7.00;71.50;;;;;;4975233;28;20042;-80
2021/01/05 11:03:38;;;;;;;14.43;8.15;;;7.00;71.50;;;;;;4991130;28;20054;-75
2021/01/05 11:06:05;;;;;;;11.87;7.67;;;6.90;71.40;;;;;;4993220;28;20524;-77
2021/01/05 11:08:31;;;;;;;12.67;8.50;;;7.00;71.50;;;;;;4993156;28;20034;-77
2021/01/05 11:11:00;;;;;;;13.93;8.90;;;7.00;71.50;;;;;;4986643;28;20499;-78
2021/01/05 11:13:26;;;;;;;12.37;7.67;;;7.00;71.30;;;;;;4989470;28;20042;-74
2021/01/05 11:15:51;;;;;;;14.20;8.37;;;7.00;71.30;;;;;;4977546;28;20045;-78
2021/01/05 11:18:17;;;;;;;13.53;8.43;;;7.00;71.30;;;;;;5003907;28;20037;-78
2021/01/05 11:20:42;;;;;;;13.83;8.50;;;7.00;71.50;;;;;;5009052;28;20034;-76
2021/01/05 11:23:09;;;;;;;14.00;8.90;;;7.00;71.50;;;;;;5005410;28;20026;-82
2021/01/05 11:25:35;;;;;;;11.90;7.00;;;7.00;71.50;;;;;;5013790;28;20045;-82
2021/01/05 11:28:03;;;;;;;14.03;8.07;;;7.00;71.60;;;;;;5007689;28;20517;-80
2021/01/05 11:30:28;;;;;;;14.57;9.57;;;7.10;71.60;;;;;;5010322;28;20091;-82
2021/01/05 11:32:54;;;;;;;13.90;8.70;;;7.10;71.50;;;;;;5009131;28;20521;-81
2021/01/05 11:35:20;;;;;;;15.97;9.10;;;7.10;71.40;;;;;;5010849;28;20596;-81
2021/01/05 11:37:45;;;;;;;14.25;8.70;;;7.10;71.50;;;;;;4995478;28;20061;-81
2021/01/05 11:40:12;;;;;;;14.03;9.27;;;7.10;71.70;;;;;;5007824;28;20117;-80
2021/01/05 11:42:38;;;;;;;14.87;9.00;;;7.00;71.80;;;;;;5002860;28;20030;-82
2021/01/05 11:45:06;;;;;;;18.00;10.23;;;7.00;72.20;;;;;;4993684;28;20041;-81
2021/01/05 11:47:31;;;;;;;16.73;9.57;;;7.00;72.10;;;;;;5007539;28;20022;-80
2021/01/05 11:49:57;;;;;;;17.10;10.23;;;7.00;72.00;;;;;;4995892;28;20431;-81
2021/01/05 11:52:24;;;;;;;16.13;9.70;;;7.00;72.20;;;;;;5010569;28;20042;-81
2021/01/05 11:54:50;;;;;;;15.60;9.87;;;7.00;72.40;;;;;;4993498;28;20054;-81
2021/01/05 11:57:16;;;;;;;17.47;10.10;;;7.10;72.40;;;;;;5010987;28;20148;-81
2021/01/05 11:59:41;;;;;;;18.93;11.40;;;7.10;72.10;;;;;;4988024;28;20539;-82
2021/01/05 12:02:07;;;;;;;16.03;9.77;;;7.10;72.30;;;;;;5004069;28;21417;-82
2021/01/05 12:04:33;;;;;;;18.25;10.05;;;7.10;72.40;;;;;;5008322;28;20057;-79
2021/01/05 12:06:59;;;;;;;17.00;9.63;;;7.20;72.40;;;;;;4980415;28;20815;-81
2021/01/05 12:09:26;;;;;;;17.33;10.43;;;7.20;72.40;;;;;;4993206;28;20053;-74
2021/01/05 12:11:57;;;;;;;18.83;10.77;;;7.20;72.40;;;;;;4989159;28;20317;-80
2021/01/05 12:14:23;;;;;;;19.93;11.70;;;7.20;72.20;;;;;;4996276;28;20092;-79
2021/01/05 12:16:49;;;;;;;18.48;11.10;;;7.20;72.40;;;;;;4996526;28;20173;-78
2021/01/05 12:19:21;;;;;;;20.23;12.00;;;7.10;72.50;;;;;;4967328;28;20026;-78
2021/01/05 12:21:47;;;;;;;21.80;13.13;;;7.10;72.60;;;;;;4998105;28;20133;-78
2021/01/05 12:24:20;;;;;;;19.13;11.33;;;7.20;72.70;;;;;;4995074;28;20030;-77
2021/01/05 12:26:46;;;;;;;19.20;11.25;;;7.20;72.70;;;;;;4996966;28;20038;-78
2021/01/05 12:29:21;;;;;;;17.67;10.73;;;7.20;72.70;;;;;;4976293;28;20118;-77
2021/01/05 12:32:03;;;;;;;20.00;11.32;;;7.20;72.60;;;;;;5000586;28;20088;-79
2021/01/05 12:34:32;;;;;;;19.10;11.10;;;7.20;72.50;;;;;;4993609;28;20030;-79
2021/01/05 12:37:07;;;;;;;19.27;10.70;;;7.30;72.60;;;;;;4996666;28;20038;-75
2021/01/05 12:39:34;;;;;;;18.77;11.93;;;7.30;72.40;;;;;;5000625;28;20081;-83
2021/01/05 12:42:07;;;;;;;18.48;11.25;;;7.30;72.40;;;;;;5012032;28;20030;-77
2021/01/05 12:44:33;;;;;;;18.55;10.95;;;7.30;72.20;;;;;;5012936;28;20018;-78
2021/01/05 12:46:59;;;;;;;19.85;11.90;;;7.30;72.30;;;;;;5014652;28;20037;-82
2021/01/05 12:49:25;;;;;;;20.40;11.88;;;7.40;72.20;;;;;;5017505;28;20352;-82
2021/01/05 12:51:51;;;;;;;17.88;11.00;;;7.40;71.90;;;;;;4995508;28;20376;-76
2021/01/05 12:54:22;;;;;;;18.58;11.15;;;7.40;71.90;;;;;;4993477;28;20038;-77
2021/01/05 12:56:48;;;;;;;18.70;11.47;;;7.30;72.00;;;;;;5004831;28;20092;-77
2021/01/05 12:59:16;;;;;;;18.85;10.43;;;7.40;72.00;;;;;;4994847;28;20023;-77
2021/01/05 13:01:42;;;;;;;19.30;11.43;;;7.40;72.00;;;;;;4999071;28;20109;-75